Time;durP1;ratioP1;P1;durP2;ratioP2;P2;SDS_P1;SDS_P2;PMS_P1;PMS_P2;Temp;Humidity;BMP_temperature;BMP_pressure;BME280_temperature;BME280_humidity;BME280_pressure;Samples;Min_cycle;Max_cycle;Signal;HPM_P1;HPM_P2
2022/11/27 00:01:44;;;;;;;;;;;;;;;5.66;100.00;100759.59;6150624;23;20328;-88
2022/11/27 00:04:10;;;;;;;;;;;;;;;5.66;100.00;100762.22;6151583;23;19920;-85
2022/11/27 00:06:39;;;;;;;;;;;;;;;5.61;100.00;100762.25;6151916;23;19913;-90
2022/11/27 00:09:06;;;;;;;;;;;;;;;5.62;100.00;100753.50;6151453;22;20043;-87
2022/11/27 00:11:39;;;;;;;;;;;;;;;5.61;100.00;100763.13;6279981;22;20359;-90
2022/11/27 00:14:23;;;;;;;;;;;;;;;5.57;100.00;100761.41;6150377;23;20066;-92
2022/11/27 00:16:49;;;;;;;;;;;;;;;5.55;100.00;100757.94;6254278;22;19909;-84
2022/11/27 00:19:14;;;;;;;;;;;;;;;5.58;100.00;100757.88;6253458;22;19913;-84
2022/11/27 00:21:39;;;;;;;;;;;;;;;5.59;100.00;100759.63;6152483;23;19919;-87
2022/11/27 00:24:06;;;;;;;;;;;;;;;5.56;100.00;100762.28;6277355;22;20286;-85
2022/11/27 00:26:32;;;;;;;;;;;;;;;5.55;100.00;100757.03;6149925;23;19917;-86
2022/11/27 00:29:00;;;;;;;;;;;;;;;5.55;100.00;100750.03;6253503;22;19917;-90
2022/11/27 00:31:28;;;;;;;;;;;;;;;5.52;100.00;100755.31;6253463;22;19913;-86
2022/11/27 00:34:16;;;;;;;;;;;;;;;5.57;100.00;100755.28;6151319;23;19913;-93
2022/11/27 00:36:44;;;;;;;;;;;;;;;5.57;100.00;100748.25;6135971;23;19913;-89
2022/11/27 00:39:11;;;;;;;;;;;;;;;5.55;100.00;100746.50;6278327;22;19968;-86
2022/11/27 00:41:37;;;;;;;;;;;;;;;5.58;100.00;100757.00;6151045;23;19927;-84
2022/11/27 00:44:02;;;;;;;;;;;;;;;5.52;100.00;100763.19;6253734;22;20296;-87
2022/11/27 00:46:29;;;;;;;;;;;;;;;5.57;100.00;100750.91;6151568;23;19936;-87
2022/11/27 00:48:55;;;;;;;;;;;;;;;5.59;100.00;100750.88;6252933;22;19913;-88
2022/11/27 00:51:24;;;;;;;;;;;;;;;5.55;100.00;100742.16;6150806;23;20355;-94
2022/11/27 00:53:50;;;;;;;;;;;;;;;5.61;100.00;100741.22;6252277;22;20321;-87
2022/11/27 00:56:34;;;;;;;;;;;;;;;5.60;100.00;100742.97;6150983;23;19913;-91
2022/11/27 00:59:28;;;;;;;;;;;;;;;5.60;100.00;100739.47;6151436;23;19995;-93
2022/11/27 01:01:53;;;;;;;;;;;;;;;5.58;100.00;100739.47;6246023;22;20007;-86
2022/11/27 01:04:19;;;;;;;;;;;;;;;5.64;100.00;100747.31;6254056;22;20329;-89
2022/11/27 01:06:44;;;;;;;;;;;;;;;5.63;100.00;100742.97;6151465;23;20344;-90
2022/11/27 01:09:13;;;;;;;;;;;;;;;5.58;100.00;100742.09;6151245;23;19912;-91
2022/11/27 01:11:39;;;;;;;;;;;;;;;5.62;100.00;100733.31;6152586;23;20003;-87
2022/11/27 01:14:08;;;;;;;;;;;;;;;5.66;100.00;100738.56;6151499;23;19947;-87
2022/11/27 01:16:34;;;;;;;;;;;;;;;5.66;100.00;100742.06;6151868;23;19936;-85
2022/11/27 01:19:00;;;;;;;;;;;;;;;6.27;100.00;100734.53;6153175;23;20315;-86
2022/11/27 01:21:54;;;;;;;;;;;;;;;5.94;100.00;100733.97;6152578;23;19958;-90
2022/11/27 01:24:19;;;;;;;;;;;;;;;5.78;100.00;100738.47;6158645;22;19908;-86
2022/11/27 01:26:45;;;;;;;;;;;;;;;5.74;100.00;100729.72;6151893;23;19931;-86
2022/11/27 01:29:10;;;;;;;;;;;;;;;5.72;100.00;100739.38;6151953;23;19912;-85
2022/11/27 01:31:35;;;;;;;;;;;;;;;5.75;100.00;100727.97;6151156;23;19991;-89
2022/11/27 01:34:05;;;;;;;;;;;;;;;5.74;100.00;100724.44;6152282;23;19964;-87
2022/11/27 01:36:31;;;;;;;;;;;;;;;5.75;100.00;100720.09;6152280;23;20214;-84
2022/11/27 01:38:59;;;;;;;;;;;;;;;5.75;100.00;100718.31;6253099;22;19919;-88
2022/11/27 01:41:30;;;;;;;;;;;;;;;5.78;100.00;100714.81;6255722;22;20391;-91
2022/11/27 01:43:58;;;;;;;;;;;;;;;5.74;100.00;100715.69;6255860;22;20324;-86
2022/11/27 01:47:02;;;;;;;;;;;;;;;5.77;100.00;100716.53;6254526;22;19912;-86
2022/11/27 01:49:35;;;;;;;;;;;;;;;5.79;100.00;100711.25;6033002;23;20017;-86
2022/11/27 01:52:00;;;;;;;;;;;;;;;5.76;100.00;100698.13;6033406;23;20346;-89
2022/11/27 01:54:47;;;;;;;;;;;;;;;5.82;100.00;100703.34;6120734;22;19920;-84
2022/11/27 02:00:33;;;;;;;;;;;;;;;;;;;;;
2022/11/27 02:02:59;;;;;;;;;;;;;;;5.84;100.00;100685.81;6136114;23;20403;-87
2022/11/27 02:05:27;;;;;;;;;;;;;;;5.88;100.00;100682.25;6153100;23;19940;-88
2022/11/27 02:07:56;;;;;;;;;;;;;;;5.88;100.00;100681.41;6254690;22;19938;-91
2022/11/27 02:10:26;;;;;;;;;;;;;;;5.95;100.00;100677.81;6151752;23;19916;-85
2022/11/27 02:12:56;;;;;;;;;;;;;;;5.93;100.00;100671.69;6255270;22;19919;-85
2022/11/27 02:15:24;;;;;;;;;;;;;;;5.94;100.00;100660.28;6153249;23;19928;-93
2022/11/27 02:17:49;;;;;;;;;;;;;;;5.93;100.00;100664.66;6254734;22;20240;-86
2022/11/27 04:15:18;;;;;;;;;;;;;;;6.50;100.00;100597.41;6255374;22;19930;-85
2022/11/27 04:17:43;;;;;;;;;;;;;;;6.52;100.00;100606.13;6363832;22;19918;-85
2022/11/27 04:20:09;;;;;;;;;;;;;;;6.53;100.00;100594.72;6337952;22;20012;-85
2022/11/27 04:22:34;;;;;;;;;;;;;;;6.57;100.00;100587.66;6364270;22;19910;-87
2022/11/27 04:25:00;;;;;;;;;;;;;;;6.57;100.00;100574.47;6339325;22;19915;-89
2022/11/27 04:27:25;;;;;;;;;;;;;;;6.55;100.00;100569.25;6339279;22;19922;-90
2022/11/27 04:29:50;;;;;;;;;;;;;;;6.55;100.00;100579.78;6337433;22;19993;-88
2022/11/27 04:32:16;;;;;;;;;;;;;;;6.58;100.00;100590.25;6339355;22;19910;-89
2022/11/27 04:34:41;;;;;;;;;;;;;;;6.59;100.00;100592.00;6338036;22;19911;-89
2022/11/27 04:37:06;;;;;;;;;;;;;;;6.64;100.00;100577.00;6339080;22;20242;-89
2022/11/27 04:39:32;;;;;;;;;;;;;;;6.62;100.00;100570.91;6339173;22;19964;-88
2022/11/27 04:41:57;;;;;;;;;;;;;;;6.63;100.00;100570.00;6339269;22;20282;-88
2022/11/27 04:44:22;;;;;;;;;;;;;;;6.61;100.00;100569.16;6337958;22;19917;-89
2022/11/27 04:46:48;;;;;;;;;;;;;;;6.63;100.00;100571.78;6341449;22;20032;-91
2022/11/27 04:49:13;;;;;;;;;;;;;;;6.63;100.00;100570.00;6341103;22;19917;-88
2022/11/27 04:51:39;;;;;;;;;;;;;;;6.63;100.00;100567.34;6340954;22;19910;-88
2022/11/27 04:54:04;;;;;;;;;;;;;;;6.62;100.00;100575.28;6365609;22;19923;-89
2022/11/27 04:56:29;;;;;;;;;;;;;;;6.62;100.00;100570.91;6339369;22;19976;-90
2022/11/27 04:58:54;;;;;;;;;;;;;;;6.64;100.00;100555.94;6339294;22;19911;-89
2022/11/27 05:01:20;;;;;;;;;;;;;;;6.65;100.00;100565.59;6339454;22;19985;-89
2022/11/27 05:03:48;;;;;;;;;;;;;;;6.65;100.00;100562.06;6339764;22;19971;-88
2022/11/27 05:06:13;;;;;;;;;;;;;;;6.64;100.00;100552.44;6341441;22;20337;-89
2022/11/27 05:08:39;;;;;;;;;;;;;;;6.67;100.00;100558.53;6340897;22;19910;-89
2022/11/27 05:11:12;;;;;;;;;;;;;;;6.67;100.00;100541.84;6341017;22;19915;-88
2022/11/27 05:13:38;;;;;;;;;;;;;;;6.69;100.00;100540.94;6364913;22;20373;-88
2022/11/27 05:16:04;;;;;;;;;;;;;;;6.72;100.00;100535.63;6365688;22;19954;-88
2022/11/27 05:18:29;;;;;;;;;;;;;;;6.75;100.00;100520.66;6365457;22;19925;-88
2022/11/27 05:20:56;;;;;;;;;;;;;;;6.72;100.00;100518.97;6365293;22;19919;-88
2022/11/27 05:23:21;;;;;;;;;;;;;;;6.73;100.00;100500.50;6365390;22;19914;-88
2022/11/27 05:25:47;;;;;;;;;;;;;;;6.70;100.00;100508.44;6341020;22;20292;-89
2022/11/27 05:28:12;;;;;;;;;;;;;;;6.73;100.00;100511.03;6339033;22;19910;-89
2022/11/27 05:30:46;;;;;;;;;;;;;;;6.75;100.00;100529.47;6337818;22;19914;-93
2022/11/27 05:33:12;;;;;;;;;;;;;;;6.78;100.00;100523.25;6365169;22;20326;-89
2022/11/27 05:35:38;;;;;;;;;;;;;;;6.76;100.00;100535.59;6365457;22;19919;-89
2022/11/27 05:38:03;;;;;;;;;;;;;;;6.77;100.00;100539.97;6339066;22;19956;-90
2022/11/27 05:40:28;;;;;;;;;;;;;;;6.77;100.00;100546.09;6338933;22;19917;-90
2022/11/27 05:42:54;;;;;;;;;;;;;;;6.81;100.00;100549.53;6365232;22;19985;-89
2022/11/27 14:00:57;;;;;;;;;;;;;;;8.65;100.00;99913.00;6343783;22;20397;-90
2022/11/27 14:03:25;;;;;;;;;;;;;;;8.65;100.00;99918.28;6365168;22;19938;-89
2022/11/27 14:05:51;;;;;;;;;;;;;;;8.67;100.00;99917.28;6339306;22;19918;-89
2022/11/27 14:08:18;;;;;;;;;;;;;;;8.66;100.00;99912.94;6341196;22;19911;-89
2022/11/27 14:10:57;;;;;;;;;;;;;;;8.68;100.00;99910.22;6339409;22;19912;-91
2022/11/27 14:13:33;;;;;;;;;;;;;;;8.68;100.00;99902.28;6362558;22;19914;-90
2022/11/27 14:16:03;;;;;;;;;;;;;;;8.71;100.00;99912.75;6338481;22;20312;-89
2022/11/27 14:18:29;;;;;;;;;;;;;;;8.71;100.00;99913.66;6339278;22;20371;-90
2022/11/27 14:21:01;;;;;;;;;;;;;;;8.71;100.00;99918.94;6339069;22;19911;-90
2022/11/27 14:23:27;;;;;;;;;;;;;;;8.72;100.00;99919.78;6337739;22;19910;-91
2022/11/27 14:26:00;;;;;;;;;;;;;;;8.73;100.00;99924.16;6339076;22;20314;-88
2022/11/27 14:28:26;;;;;;;;;;;;;;;8.77;100.00;99922.28;6337572;22;19942;-89
2022/11/27 14:30:55;;;;;;;;;;;;;;;8.75;100.00;99921.47;6339109;22;20281;-88
2022/11/27 14:33:25;;;;;;;;;;;;;;;8.77;100.00;99914.34;6338883;22;19915;-91
2022/11/27 14:35:52;;;;;;;;;;;;;;;8.75;100.00;99913.56;6339012;22;19910;-89
2022/11/27 14:38:17;;;;;;;;;;;;;;;8.78;100.00;99908.16;6338801;22;20319;-88
2022/11/27 14:40:43;;;;;;;;;;;;;;;8.80;100.00;99915.09;6339020;22;19945;-88
2022/11/27 14:43:09;;;;;;;;;;;;;;;8.80;100.00;99915.09;6363894;22;19910;-90
2022/11/27 14:45:35;;;;;;;;;;;;;;;8.81;100.00;99911.56;6337255;22;19910;-89
2022/11/27 14:48:01;;;;;;;;;;;;;;;8.82;100.00;99908.00;6337236;22;19917;-90
2022/11/27 14:50:26;;;;;;;;;;;;;;;8.83;100.00;99909.72;6338987;22;19907;-90
2022/11/27 14:52:53;;;;;;;;;;;;;;;8.84;100.00;99897.38;6338737;22;19915;-90
2022/11/27 14:55:28;;;;;;;;;;;;;;;8.84;100.00;99894.72;6338903;22;19917;-89
2022/11/27 14:58:28;;;;;;;;;;;;;;;8.85;100.00;99897.31;6338416;22;19910;-87
2022/11/27 15:00:57;;;;;;;;;;;;;;;8.84;100.00;99894.72;6361346;22;20305;-89
2022/11/27 15:03:23;;;;;;;;;;;;;;;8.85;100.00;99897.31;6337321;22;19918;-90
2022/11/27 15:05:53;;;;;;;;;;;;;;;8.86;100.00;99893.75;6361352;22;20219;-89
2022/11/27 15:08:19;;;;;;;;;;;;;;;8.86;100.00;99895.56;6279750;22;19915;-89
2022/11/27 15:10:44;;;;;;;;;;;;;;;8.86;100.00;99891.13;6306314;22;19917;-90
2022/11/27 15:13:24;;;;;;;;;;;;;;;8.88;100.00;99870.78;6305616;22;20231;-89
2022/11/27 15:15:57;;;;;;;;;;;;;;;8.88;100.00;99854.94;6306927;22;19956;-89
2022/11/27 15:18:23;;;;;;;;;;;;;;;8.90;100.00;99861.03;6306224;22;20236;-92
2022/11/27 15:20:49;;;;;;;;;;;;;;;8.88;100.00;99860.22;6307031;22;19985;-89
2022/11/27 15:23:27;;;;;;;;;;;;;;;8.90;100.00;99845.19;6307562;22;20268;-89
2022/11/27 15:25:58;;;;;;;;;;;;;;;8.91;100.00;99841.63;6305511;22;19911;-88
2022/11/27 15:28:31;;;;;;;;;;;;;;;8.91;100.00;99846.91;6305110;22;19918;-88
2022/11/27 15:30:57;;;;;;;;;;;;;;;8.94;100.00;99842.44;6226829;22;20283;-87
2022/11/27 15:33:30;;;;;;;;;;;;;;;8.95;100.00;99833.59;6253890;22;19912;-89
2022/11/27 15:36:28;;;;;;;;;;;;;;;8.94;100.00;99810.72;6279821;22;19995;-90
2022/11/27 15:39:03;;;;;;;;;;;;;;;8.94;100.00;99811.59;6117518;23;19912;-90
2022/11/27 15:41:31;;;;;;;;;;;;;;;8.94;100.00;99802.81;6151068;23;19936;-90
2022/11/27 15:43:56;;;;;;;;;;;;;;;8.94;100.00;99787.81;6252100;22;20237;-91
2022/11/27 15:46:29;;;;;;;;;;;;;;;8.95;100.00;99817.72;6254151;22;19917;-89
2022/11/27 15:48:54;;;;;;;;;;;;;;;8.96;100.00;99822.94;6279507;22;19948;-90
2022/11/27 15:51:20;;;;;;;;;;;;;;;8.96;100.00;99822.09;6279644;22;19941;-91
2022/11/27 15:53:46;;;;;;;;;;;;;;;8.97;100.00;99837.91;6254137;22;19966;-91
2022/11/27 15:56:11;;;;;;;;;;;;;;;8.98;100.00;99818.47;6253593;22;19993;-89
2022/11/27 15:58:40;;;;;;;;;;;;;;;8.99;100.00;99822.00;6252322;22;19913;-89
2022/11/27 16:01:06;;;;;;;;;;;;;;;8.68;100.00;99821.28;6253856;22;19940;-89
2022/11/27 16:03:31;;;;;;;;;;;;;;;7.32;100.00;99821.16;6253876;22;19920;-89
2022/11/27 16:06:00;;;;;;;;;;;;;;;6.90;100.00;99824.97;6253566;22;20316;-88
2022/11/27 16:08:25;;;;;;;;;;;;;;;6.63;100.00;99819.53;6279504;22;20247;-89
2022/11/27 16:10:51;;;;;;;;;;;;;;;6.38;100.00;99814.00;6253571;22;19919;-89
2022/11/27 16:13:16;;;;;;;;;;;;;;;6.29;100.00;99804.59;6246579;22;20240;-91
2022/11/27 16:15:41;;;;;;;;;;;;;;;6.18;100.00;99801.38;6149289;23;19919;-87
2022/11/27 16:18:06;;;;;;;;;;;;;;;6.04;100.00;99798.22;6253583;22;20422;-87
2022/11/27 16:20:32;;;;;;;;;;;;;;;5.97;100.00;99816.75;6150825;23;19916;-88
2022/11/27 16:22:57;;;;;;;;;;;;;;;5.93;100.00;99811.56;6253234;22;19919;-90
2022/11/27 16:25:24;;;;;;;;;;;;;;;5.89;100.00;99796.75;6253511;22;19913;-88
2022/11/27 16:27:49;;;;;;;;;;;;;;;5.78;100.00;99778.63;6150751;23;19913;-89
2022/11/27 16:30:14;;;;;;;;;;;;;;;5.64;100.00;99771.91;6251598;22;19940;-89
2022/11/27 16:32:40;;;;;;;;;;;;;;;5.68;100.00;99767.47;6150431;23;19913;-88
2022/11/27 16:35:06;;;;;;;;;;;;;;;5.62;100.00;99760.56;6150603;23;19919;-87
2022/11/27 16:37:34;;;;;;;;;;;;;;;5.56;100.00;99759.84;6150622;23;19913;-86
2022/11/27 16:39:59;;;;;;;;;;;;;;;5.50;100.00;99754.72;6149966;23;19913;-87
2022/11/27 16:42:24;;;;;;;;;;;;;;;6.14;100.00;99739.19;6150654;23;20252;-86
2022/11/27 16:44:49;;;;;;;;;;;;;;;6.65;100.00;99733.47;6148964;23;19984;-87
2022/11/27 16:47:15;;;;;;;;;;;;;;;6.96;100.00;99739.66;6150471;23;19943;-86
2022/11/27 16:49:40;;;;;;;;;;;;;;;7.17;100.00;99741.63;6150414;23;19913;-85
2022/11/27 16:52:06;;;;;;;;;;;;;;;7.34;100.00;99738.50;6150619;23;19991;-89
2022/11/27 16:54:31;;;;;;;;;;;;;;;7.49;100.00;99749.50;6253067;22;19913;-89
2022/11/27 16:56:56;;;;;;;;;;;;;;;7.61;100.00;99728.88;6253068;22;19913;-88
2022/11/27 16:59:21;;;;;;;;;;;;;;;7.73;100.00;99730.25;6251473;22;19924;-87
2022/11/27 17:01:47;;;;;;;;;;;;;;;7.82;100.00;99719.41;6251836;22;19916;-87
2022/11/27 17:04:17;;;;;;;;;;;;;;;7.93;100.00;99720.81;6252983;22;19999;-88
2022/11/27 17:09:45;;;;;;;;;;;;;;;8.08;100.00;99704.47;6150258;23;19920;-88
2022/11/27 17:12:10;;;;;;;;;;;;;;;8.15;100.00;99699.84;6253469;22;19913;-88
2022/11/27 17:14:36;;;;;;;;;;;;;;;8.18;100.00;99694.47;6251290;22;19917;-86
2022/11/27 17:17:01;;;;;;;;;;;;;;;8.24;100.00;99690.78;6150285;23;20328;-85
2022/11/27 17:19:28;;;;;;;;;;;;;;;8.28;100.00;99684.44;6150234;23;19967;-88
2022/11/27 17:21:54;;;;;;;;;;;;;;;8.30;100.00;99677.38;6150024;23;19987;-87
2022/11/27 17:24:19;;;;;;;;;;;;;;;8.34;100.00;99678.97;6150049;23;19955;-87
2022/11/27 17:26:45;;;;;;;;;;;;;;;8.38;100.00;99670.03;6150606;23;20385;-88
2022/11/27 17:29:11;;;;;;;;;;;;;;;8.39;100.00;99661.16;6148981;22;19920;-88
2022/11/27 17:31:37;;;;;;;;;;;;;;;8.42;100.00;99654.94;6276717;22;20001;-89
2022/11/27 17:34:03;;;;;;;;;;;;;;;8.44;100.00;99648.72;6279138;22;19913;-88
2022/11/27 17:36:31;;;;;;;;;;;;;;;8.47;100.00;99648.63;6149565;23;19912;-87
2022/11/27 17:38:56;;;;;;;;;;;;;;;8.51;100.00;99650.22;6149883;23;20244;-90
2022/11/27 17:41:22;;;;;;;;;;;;;;;8.52;100.00;99641.38;6150238;23;19913;-88
2022/11/27 17:43:48;;;;;;;;;;;;;;;8.53;100.00;99643.06;6149077;23;19917;-91
2022/11/27 17:48:49;;;;;;;;;;;;;;;8.60;100.00;99645.50;6148671;22;19920;-88
2022/11/27 17:51:15;;;;;;;;;;;;;;;8.62;100.00;99643.69;6279696;22;19916;-86
2022/11/27 17:53:40;;;;;;;;;;;;;;;8.63;100.00;99643.63;6278852;22;19913;-87
2022/11/27 17:56:07;;;;;;;;;;;;;;;8.64;100.00;99647.97;6150821;23;20398;-88
2022/11/27 17:58:35;;;;;;;;;;;;;;;8.66;100.00;99648.78;6149094;23;19944;-88
2022/11/27 18:01:01;;;;;;;;;;;;;;;8.69;100.00;99639.88;6149713;23;19951;-86
2022/11/27 18:03:47;;;;;;;;;;;;;;;8.70;100.00;99638.97;6280412;22;19920;-89
2022/11/27 18:06:12;;;;;;;;;;;;;;;8.71;100.00;99631.00;6228499;22;19919;-87
2022/11/27 18:08:40;;;;;;;;;;;;;;;8.72;100.00;99624.75;6150435;23;20023;-86
2022/11/27 18:11:06;;;;;;;;;;;;;;;8.76;100.00;99622.91;6279687;22;19919;-87
2022/11/27 18:13:40;;;;;;;;;;;;;;;8.78;100.00;99620.19;6277148;22;19919;-86
2022/11/27 18:16:06;;;;;;;;;;;;;;;8.78;100.00;99618.41;6149619;23;19917;-89
2022/11/27 18:18:48;;;;;;;;;;;;;;;8.82;100.00;99608.56;6150450;23;20236;-85
2022/11/27 18:21:15;;;;;;;;;;;;;;;8.82;100.00;99611.22;6253085;22;20209;-88
2022/11/27 18:23:42;;;;;;;;;;;;;;;8.83;100.00;99610.31;6280567;22;20232;-86
2022/11/27 18:26:13;;;;;;;;;;;;;;;8.84;100.00;99610.25;6279628;22;20019;-89
2022/11/27 18:28:38;;;;;;;;;;;;;;;8.86;100.00;99613.69;6278986;22;19912;-86
2022/11/27 18:31:06;;;;;;;;;;;;;;;8.88;100.00;99609.19;6254968;22;19998;-91
2022/11/27 18:33:37;;;;;;;;;;;;;;;8.86;100.00;99597.81;6150998;23;19963;-90
2022/11/27 18:36:25;;;;;;;;;;;;;;;8.87;100.00;99599.56;6280761;22;19920;-87
2022/11/27 18:38:50;;;;;;;;;;;;;;;8.90;100.00;99588.88;6065243;23;19945;-86
2022/11/27 18:41:17;;;;;;;;;;;;;;;8.89;100.00;99589.78;6140000;23;19921;-88
2022/11/27 18:43:43;;;;;;;;;;;;;;;8.92;100.00;99591.47;6252289;22;20229;-86
2022/11/27 18:46:09;;;;;;;;;;;;;;;8.94;100.00;99594.88;6278612;22;19913;-86
2022/11/27 18:48:37;;;;;;;;;;;;;;;8.94;100.00;99599.31;6279807;22;19916;-88
2022/11/27 18:51:22;;;;;;;;;;;;;;;8.96;100.00;99597.47;6151091;23;19987;-87
2022/11/27 18:53:47;;;;;;;;;;;;;;;8.98;100.00;99596.47;6150652;23;19942;-88
2022/11/27 18:56:22;;;;;;;;;;;;;;;8.99;100.00;99592.94;6150787;23;19995;-87
2022/11/27 18:58:57;;;;;;;;;;;;;;;9.00;100.00;99585.84;6150684;23;19913;-88
2022/11/27 19:01:24;;;;;;;;;;;;;;;9.01;100.00;99588.44;6280258;22;19923;-88
2022/11/27 19:04:32;;;;;;;;;;;;;;;;;;;;;
2022/11/27 19:10:29;;;;;;;;;;;;;;;6.87;100.00;99590.63;6212574;23;19912;-88
2022/11/27 19:12:55;;;;;;;;;;;;;;;6.60;100.00;99577.38;6150997;23;19912;-87
2022/11/27 19:15:23;;;;;;;;;;;;;;;6.48;100.00;99588.28;6252313;22;19952;-88
2022/11/27 19:18:03;;;;;;;;;;;;;;;6.33;100.00;99590.47;6151841;23;19935;-90
2022/11/27 19:20:39;;;;;;;;;;;;;;;6.21;100.00;99582.91;6150833;23;19913;-90
2022/11/27 19:23:06;;;;;;;;;;;;;;;6.10;100.00;99587.59;6151029;23;19965;-88
2022/11/27 19:25:54;;;;;;;;;;;;;;;6.03;100.00;99588.66;6150449;23;20409;-90
2022/11/27 19:28:19;;;;;;;;;;;;;;;5.94;100.00;99581.88;6151459;23;20256;-93
2022/11/27 19:30:46;;;;;;;;;;;;;;;5.87;100.00;99589.06;6149983;22;21308;-88
2022/11/27 19:33:11;;;;;;;;;;;;;;;5.72;100.00;99584.22;6150855;23;19912;-89
2022/11/27 19:35:37;;;;;;;;;;;;;;;5.68;100.00;99572.91;6253273;22;19913;-85
2022/11/27 19:38:20;;;;;;;;;;;;;;;5.60;100.00;99567.84;6151178;23;19912;-87
2022/11/27 19:40:46;;;;;;;;;;;;;;;5.65;100.00;99573.00;6152615;23;19913;-89
2022/11/27 19:43:11;;;;;;;;;;;;;;;5.66;100.00;99576.47;6254166;22;19992;-88
2022/11/27 19:45:36;;;;;;;;;;;;;;;6.44;100.00;99574.34;6278391;22;19912;-92
2022/11/27 19:48:02;;;;;;;;;;;;;;;6.84;100.00;99565.22;6152980;23;19967;-89
2022/11/27 19:50:27;;;;;;;;;;;;;;;7.12;100.00;99563.53;6274712;22;20250;-89
2022/11/27 19:52:54;;;;;;;;;;;;;;;7.30;100.00;99557.63;6274448;22;19915;-88
2022/11/27 19:55:19;;;;;;;;;;;;;;;7.45;100.00;99557.13;6275907;22;19915;-87
2022/11/27 19:57:44;;;;;;;;;;;;;;;7.60;100.00;99557.53;6274780;22;19911;-88
2022/11/27 20:00:11;;;;;;;;;;;;;;;7.71;100.00;99536.91;6272899;22;19911;-88
2022/11/27 20:02:36;;;;;;;;;;;;;;;7.84;100.00;99531.22;6275935;22;19923;-87
2022/11/27 20:05:02;;;;;;;;;;;;;;;7.91;100.00;99520.34;6276169;22;20220;-87
2022/11/27 20:07:27;;;;;;;;;;;;;;;8.01;100.00;99507.72;6274532;22;19937;-88
2022/11/27 20:09:54;;;;;;;;;;;;;;;8.08;100.00;99514.47;6274730;22;19911;-85
2022/11/27 20:12:19;;;;;;;;;;;;;;;8.13;100.00;99525.72;6274092;22;19964;-94
2022/11/27 20:14:44;;;;;;;;;;;;;;;8.19;100.00;99522.84;6273324;22;20314;-87
2022/11/27 20:17:10;;;;;;;;;;;;;;;8.26;100.00;99506.78;6273417;22;19912;-86
2022/11/27 20:19:35;;;;;;;;;;;;;;;8.29;100.00;99507.53;6275447;22;19995;-90
2022/11/27 20:22:00;;;;;;;;;;;;;;;8.34;100.00;99510.00;6273624;22;19957;-89
2022/11/27 20:24:25;;;;;;;;;;;;;;;8.37;100.00;99512.53;6274078;22;19961;-87
2022/11/27 20:26:50;;;;;;;;;;;;;;;8.42;100.00;99523.75;6274506;22;20386;-88
2022/11/27 20:30:05;;;;;;;;;;;;;;;;;;;;;
2022/11/27 20:32:31;;;;;;;;;;;;;;;8.49;100.00;99508.59;6250251;22;20002;-88
2022/11/27 20:34:56;;;;;;;;;;;;;;;8.53;100.00;99512.81;6275963;22;19915;-89
2022/11/27 20:37:21;;;;;;;;;;;;;;;8.55;100.00;99524.19;6275981;22;19915;-91
2022/11/27 20:39:47;;;;;;;;;;;;;;;8.57;100.00;99513.56;6274803;22;19964;-86
2022/11/27 20:42:12;;;;;;;;;;;;;;;8.61;100.00;99505.47;6275390;22;19918;-88
2022/11/27 20:44:38;;;;;;;;;;;;;;;8.63;100.00;99510.69;6272734;22;20346;-89
2022/11/27 20:47:03;;;;;;;;;;;;;;;8.65;100.00;99511.50;6275750;22;19911;-86
2022/11/27 20:49:29;;;;;;;;;;;;;;;8.67;100.00;99509.66;6273999;22;19985;-89
2022/11/27 20:51:55;;;;;;;;;;;;;;;8.70;100.00;99514.81;6275964;22;19999;-87
2022/11/27 20:54:20;;;;;;;;;;;;;;;8.71;100.00;99503.31;6274066;22;19980;-88
2022/11/27 20:56:48;;;;;;;;;;;;;;;8.72;100.00;99494.47;6277814;22;20327;-90
2022/11/27 20:59:14;;;;;;;;;;;;;;;8.74;100.00;99487.34;6273225;22;19912;-88
2022/11/27 21:01:40;;;;;;;;;;;;;;;8.77;100.00;99497.78;6277164;22;19995;-87
2022/11/27 21:04:08;;;;;;;;;;;;;;;8.79;100.00;99509.19;6274306;22;19934;-88
2022/11/27 21:06:34;;;;;;;;;;;;;;;8.80;100.00;99502.94;6275969;22;20333;-88
2022/11/27 21:09:00;;;;;;;;;;;;;;;8.81;100.00;99494.13;6275337;22;19989;-91
2022/11/27 21:11:26;;;;;;;;;;;;;;;8.83;100.00;99492.25;6274166;22;20286;-91
2022/11/27 21:13:56;;;;;;;;;;;;;;;8.85;100.00;99498.34;6273128;22;19916;-90
2022/11/27 21:16:22;;;;;;;;;;;;;;;8.87;100.00;99491.22;6274549;22;19923;-90
2022/11/27 21:18:50;;;;;;;;;;;;;;;8.88;100.00;99489.44;6272942;22;19908;-88
2022/11/27 21:21:16;;;;;;;;;;;;;;;8.87;100.00;99488.59;6276079;22;20342;-89
2022/11/27 21:23:41;;;;;;;;;;;;;;;8.90;100.00;99493.75;6275923;22;19942;-90
2022/11/27 21:26:07;;;;;;;;;;;;;;;8.92;100.00;99496.34;6274680;22;19911;-86
2022/11/27 21:28:35;;;;;;;;;;;;;;;8.94;100.00;99489.19;6274954;22;19991;-93
2022/11/27 21:31:07;;;;;;;;;;;;;;;8.95;100.00;99474.19;6276352;22;19982;-90
2022/11/27 21:33:33;;;;;;;;;;;;;;;8.97;100.00;99467.09;6277820;22;19911;-89
2022/11/27 21:35:58;;;;;;;;;;;;;;;8.98;100.00;99461.69;6275644;22;20242;-89
2022/11/27 21:38:23;;;;;;;;;;;;;;;8.99;100.00;99457.31;6277573;22;19911;-90
2022/11/27 21:40:49;;;;;;;;;;;;;;;9.00;100.00;99461.63;6277969;22;19912;-87
2022/11/27 21:43:14;;;;;;;;;;;;;;;9.01;100.00;99463.38;6277616;22;19957;-88
2022/11/27 21:45:40;;;;;;;;;;;;;;;8.57;100.00;99471.31;6275846;22;20464;-87
2022/11/27 21:48:05;;;;;;;;;;;;;;;7.38;100.00;99468.63;6276213;22;19985;-88
2022/11/27 21:50:30;;;;;;;;;;;;;;;6.94;100.00;99476.28;6178848;22;19916;-87
2022/11/27 21:52:55;;;;;;;;;;;;;;;6.68;100.00;99469.19;6151609;23;20003;-88
2022/11/27 21:55:21;;;;;;;;;;;;;;;6.55;100.00;99474.00;6151244;23;19936;-87
2022/11/27 21:57:46;;;;;;;;;;;;;;;6.39;100.00;99470.13;6280598;22;19916;-87
2022/11/27 22:00:11;;;;;;;;;;;;;;;6.24;100.00;99464.41;6150411;23;19912;-88
2022/11/27 22:02:37;;;;;;;;;;;;;;;6.17;100.00;99453.22;6151484;23;19913;-89
2022/11/27 22:05:02;;;;;;;;;;;;;;;6.07;100.00;99451.75;6151692;23;20328;-86
2022/11/27 22:07:27;;;;;;;;;;;;;;;6.06;100.00;99443.91;6254336;22;19920;-86
2022/11/27 22:09:52;;;;;;;;;;;;;;;5.94;100.00;99438.09;6254550;22;19917;-88
2022/11/27 22:12:18;;;;;;;;;;;;;;;5.88;100.00;99425.09;6254294;22;19920;-87
2022/11/27 22:14:43;;;;;;;;;;;;;;;5.85;100.00;99426.97;6149674;23;19978;-86
2022/11/27 22:17:08;;;;;;;;;;;;;;;5.80;100.00;99419.22;6151002;23;19916;-87
2022/11/27 22:19:39;;;;;;;;;;;;;;;5.80;100.00;99416.59;6280060;22;19956;-87
2022/11/27 22:22:04;;;;;;;;;;;;;;;5.72;100.00;99413.31;6254094;22;19977;-87
2022/11/27 22:24:29;;;;;;;;;;;;;;;5.80;100.00;99406.06;6280011;22;20325;-88
2022/11/27 22:26:54;;;;;;;;;;;;;;;6.51;100.00;99403.91;6151492;23;20476;-87
2022/11/27 22:29:20;;;;;;;;;;;;;;;6.89;100.00;99409.69;6149894;23;19923;-88
2022/11/27 22:31:45;;;;;;;;;;;;;;;7.14;100.00;99403.59;6280998;22;20049;-87
2022/11/27 22:34:10;;;;;;;;;;;;;;;7.29;100.00;99400.41;6151343;23;19913;-87
2022/11/27 22:36:36;;;;;;;;;;;;;;;7.45;100.00;99396.31;6279481;22;19921;-86
2022/11/27 22:39:03;;;;;;;;;;;;;;;7.59;100.00;99394.94;6151298;23;19913;-87
2022/11/27 22:41:29;;;;;;;;;;;;;;;7.72;100.00;99398.88;6279794;22;19913;-86
2022/11/27 22:43:54;;;;;;;;;;;;;;;7.85;100.00;99406.31;6279250;22;19943;-87
2022/11/27 22:46:21;;;;;;;;;;;;;;;7.92;100.00;99398.09;6150725;23;20313;-86
2022/11/27 22:48:52;;;;;;;;;;;;;;;8.02;100.00;99384.56;6280212;22;20388;-86
2022/11/27 22:51:17;;;;;;;;;;;;;;;8.07;100.00;99388.72;6150963;23;19912;-86
2022/11/27 22:53:43;;;;;;;;;;;;;;;8.14;100.00;99386.72;6253904;22;19913;-86
2022/11/27 22:56:10;;;;;;;;;;;;;;;8.19;100.00;99382.13;6254716;22;20339;-87
2022/11/27 22:58:35;;;;;;;;;;;;;;;8.24;100.00;99381.94;6149168;23;19924;-85
2022/11/27 23:01:01;;;;;;;;;;;;;;;8.29;100.00;99394.03;6151156;23;19912;-86
2022/11/27 23:03:27;;;;;;;;;;;;;;;8.34;100.00;99399.13;6279462;22;19956;-86
2022/11/27 23:05:52;;;;;;;;;;;;;;;8.37;100.00;99409.56;6254121;22;20003;-86
2022/11/27 23:08:17;;;;;;;;;;;;;;;8.40;100.00;99406.81;6279381;22;19913;-85
2022/11/27 23:10:44;;;;;;;;;;;;;;;8.45;100.00;99402.22;6253317;22;20343;-87
2022/11/27 23:13:09;;;;;;;;;;;;;;;8.49;100.00;99419.69;6279760;22;20300;-86
2022/11/27 23:15:34;;;;;;;;;;;;;;;8.51;100.00;99417.81;6149753;23;19912;-87